Time;durP1;ratioP1;P1;durP2;ratioP2;P2;SDS_P1;SDS_P2;PMS_P1;PMS_P2;Temp;Humidity;BMP_temperature;BMP_pressure;BME280_temperature;BME280_humidity;BME280_pressure;Samples;Min_cycle;Max_cycle;Signal;HPM_P1;HPM_P2
2023/08/02 00:01:45;;;;;;;;;;;;;;;;;;6260050;28;19909;-87
2023/08/02 00:04:46;;;;;;;;;;;;;;;;;;6242259;28;19967;-87
2023/08/02 00:07:46;;;;;;;;;;;;;;;;;;6251175;28;20314;-88
2023/08/02 00:10:47;;;;;;;;;;;;;;;;;;6253311;28;19905;-87
2023/08/02 00:13:47;;;;;;;;;;;;;;;;;;6247790;28;20359;-86
2023/08/02 00:16:47;;;;;;;;;;;;;;;;;;6248281;28;19908;-86
2023/08/02 00:19:49;;;;;;;;;;;;;;;;;;6255939;28;19916;-88
2023/08/02 00:22:49;;;;;;;;;;;;;;;;;;6247304;28;19923;-87
2023/08/02 00:25:51;;;;;;;;;;;;;;;;;;6247545;28;19909;-86
2023/08/02 00:28:51;;;;;;;;;;;;;;;;;;6259051;28;20015;-87
2023/08/02 00:31:51;;;;;;;;;;;;;;;;;;6260991;28;19976;-88
2023/08/02 00:34:54;;;;;;;;;;;;;;;;;;6240512;28;19909;-87
2023/08/02 00:37:54;;;;;;;;;;;;;;;;;;6252557;28;19999;-88
2023/08/02 00:40:54;;;;;;;;;;;;;;;;;;6251382;28;19905;-88
2023/08/02 00:43:54;;;;;;;;;;;;;;;;;;6259663;28;19905;-87
2023/08/02 00:46:55;;;;;;;;;;;;;;;;;;6252884;28;19913;-85
2023/08/02 00:49:55;;;;;;;;;;;;;;;;;;6258041;28;19909;-86
2023/08/02 00:52:55;;;;;;;;;;;;;;;;;;6253522;28;20417;-87
2023/08/02 00:55:55;;;;;;;;;;;;;;;;;;6248247;28;19916;-84
2023/08/02 00:58:55;;;;;;;;;;;;;;;;;;6252664;28;19932;-88
2023/08/02 01:01:55;;;;;;;;;;;;;;;;;;6256802;28;19916;-87
2023/08/02 01:04:56;;;;;;;;;;;;;;;;;;6259790;28;19944;-87
2023/08/02 01:07:56;;;;;;;;;;;;;;;;;;6232345;28;19913;-85
2023/08/02 01:10:56;;;;;;;;;;;;;;;;;;6227036;28;20430;-86
2023/08/02 01:13:56;;;;;;;;;;;;;;;;;;6223427;28;19913;-86
2023/08/02 01:16:56;;;;;;;;;;;;;;;;;;6229301;28;19988;-87
2023/08/02 01:19:56;;;;;;;;;;;;;;;;;;6224037;28;20379;-86
2023/08/02 01:22:56;;;;;;;;;;;;;;;;;;6202221;28;19909;-87
2023/08/02 01:25:56;;;;;;;;;;;;;;;;;;6226134;28;19914;-88
2023/08/02 01:28:57;;;;;;;;;;;;;;;;;;6228434;28;19929;-87
2023/08/02 01:31:57;;;;;;;;;;;;;;;;;;6228580;28;19905;-87
2023/08/02 01:34:57;;;;;;;;;;;;;;;;;;6227159;28;19909;-87
2023/08/02 01:37:57;;;;;;;;;;;;;;;;;;6231094;28;20279;-85
2023/08/02 01:40:57;;;;;;;;;;;;;;;;;;6224645;28;19905;-84
2023/08/02 01:43:57;;;;;;;;;;;;;;;;;;6222967;28;19909;-84
2023/08/02 01:46:57;;;;;;;;;;;;;;;;;;6228398;28;20025;-83
2023/08/02 01:49:58;;;;;;;;;;;;;;;;;;6229339;28;20265;-87
2023/08/02 01:52:58;;;;;;;;;;;;;;;;;;6232146;28;19936;-86
2023/08/02 01:55:58;;;;;;;;;;;;;;;;;;6229112;28;20363;-78
2023/08/02 01:58:58;;;;;;;;;;;;;;;;;;6201607;28;20264;-78
2023/08/02 02:01:58;;;;;;;;;;;;;;;;;;6219856;28;20376;-79
2023/08/02 02:04:58;;;;;;;;;;;;;;;;;;6219519;28;19917;-87
2023/08/02 02:07:58;;;;;;;;;;;;;;;;;;6248771;28;19909;-86
2023/08/02 02:10:59;;;;;;;;;;;;;;;;;;6243041;28;19916;-87
2023/08/02 02:13:59;;;;;;;;;;;;;;;;;;6242276;28;20356;-87
2023/08/02 02:17:00;;;;;;;;;;;;;;;;;;6245124;28;20352;-77
2023/08/02 02:20:00;;;;;;;;;;;;;;;;;;6242865;28;19913;-78
2023/08/02 02:23:00;;;;;;;;;;;;;;;;;;6244006;28;19971;-79
2023/08/02 02:26:00;;;;;;;;;;;;;;;;;;6243136;28;20396;-78
2023/08/02 02:29:00;;;;;;;;;;;;;;;;;;6241856;28;19915;-78
2023/08/02 02:32:00;;;;;;;;;;;;;;;;;;6243828;28;19916;-78
2023/08/02 02:35:01;;;;;;;;;;;;;;;;;;6245223;28;19913;-78
2023/08/02 02:38:02;;;;;;;;;;;;;;;;;;6246675;28;19916;-78
2023/08/02 02:41:03;;;;;;;;;;;;;;;;;;6238865;28;20476;-78
2023/08/02 02:44:05;;;;;;;;;;;;;;;;;;6240758;28;19909;-78
2023/08/02 02:47:05;;;;;;;;;;;;;;;;;;6243454;28;19916;-77
2023/08/02 02:50:05;;;;;;;;;;;;;;;;;;6240760;28;19909;-77
2023/08/02 02:53:07;;;;;;;;;;;;;;;;;;6242942;28;19909;-78
2023/08/02 02:56:07;;;;;;;;;;;;;;;;;;6230060;28;20306;-78
2023/08/02 02:59:07;;;;;;;;;;;;;;;;;;6236384;28;20390;-78
2023/08/02 03:02:07;;;;;;;;;;;;;;;;;;6223918;28;20003;-77
2023/08/02 03:05:08;;;;;;;;;;;;;;;;;;6246602;28;19905;-88
2023/08/02 03:08:08;;;;;;;;;;;;;;;;;;6240733;28;19948;-86
2023/08/02 03:11:08;;;;;;;;;;;;;;;;;;6253220;28;19966;-85
2023/08/02 03:14:08;;;;;;;;;;;;;;;;;;6255789;28;19936;-85
2023/08/02 03:17:10;;;;;;;;;;;;;;;;;;6247327;28;19905;-85
2023/08/02 03:20:11;;;;;;;;;;;;;;;;;;6249994;28;19967;-84
2023/08/02 03:23:12;;;;;;;;;;;;;;;;;;6243995;28;20375;-85
2023/08/02 03:26:12;;;;;;;;;;;;;;;;;;6230938;28;20000;-84
2023/08/02 03:29:12;;;;;;;;;;;;;;;;;;6227998;28;20012;-82
2023/08/02 03:32:12;;;;;;;;;;;;;;;;;;6253900;28;19909;-84
2023/08/02 03:35:12;;;;;;;;;;;;;;;;;;6242746;28;19917;-85
2023/08/02 03:38:12;;;;;;;;;;;;;;;;;;6245145;28;19917;-85
2023/08/02 03:41:12;;;;;;;;;;;;;;;;;;6261653;28;20387;-84
2023/08/02 03:44:12;;;;;;;;;;;;;;;;;;6250876;28;19913;-85
2023/08/02 03:47:12;;;;;;;;;;;;;;;;;;6267328;28;19908;-84
2023/08/02 03:50:14;;;;;;;;;;;;;;;;;;6251248;28;20356;-85
2023/08/02 03:53:14;;;;;;;;;;;;;;;;;;6250211;28;20275;-85
2023/08/02 03:56:14;;;;;;;;;;;;;;;;;;6245453;28;20430;-85
2023/08/02 03:59:14;;;;;;;;;;;;;;;;;;6249332;28;19916;-85
2023/08/02 04:02:14;;;;;;;;;;;;;;;;;;6257601;28;19916;-85
2023/08/02 04:05:14;;;;;;;;;;;;;;;;;;6247196;28;19913;-84
2023/08/02 04:08:15;;;;;;;;;;;;;;;;;;6243676;28;19949;-85
2023/08/02 04:11:16;;;;;;;;;;;;;;;;;;6240114;28;20437;-84
2023/08/02 04:14:16;;;;;;;;;;;;;;;;;;6240592;28;20442;-83
2023/08/02 04:17:16;;;;;;;;;;;;;;;;;;6243360;28;19909;-77
2023/08/02 04:20:16;;;;;;;;;;;;;;;;;;6243467;28;19939;-78
2023/08/02 04:23:16;;;;;;;;;;;;;;;;;;6244646;28;19926;-77
2023/08/02 04:26:18;;;;;;;;;;;;;;;;;;6246054;28;20388;-78
2023/08/02 04:29:18;;;;;;;;;;;;;;;;;;6229654;28;19909;-78
2023/08/02 04:32:18;;;;;;;;;;;;;;;;;;6240914;28;19966;-77
2023/08/02 04:35:18;;;;;;;;;;;;;;;;;;6242933;28;20386;-84
2023/08/02 04:38:18;;;;;;;;;;;;;;;;;;6248538;28;19906;-83
2023/08/02 04:41:20;;;;;;;;;;;;;;;;;;6231750;28;19905;-83
2023/08/02 04:44:20;;;;;;;;;;;;;;;;;;6247514;28;19909;-85
2023/08/02 04:47:21;;;;;;;;;;;;;;;;;;6249118;28;19916;-85
2023/08/02 04:50:21;;;;;;;;;;;;;;;;;;6242794;28;19909;-84
2023/08/02 04:53:21;;;;;;;;;;;;;;;;;;6249016;28;20432;-86
2023/08/02 04:56:21;;;;;;;;;;;;;;;;;;6246762;28;19920;-78
2023/08/02 04:59:21;;;;;;;;;;;;;;;;;;6244210;28;19912;-78
2023/08/02 05:02:26;;;;;;;;;;;;;;;;;;6244886;28;20383;-79
2023/08/02 05:05:26;;;;;;;;;;;;;;;;;;6246097;28;19924;-79
2023/08/02 05:08:26;;;;;;;;;;;;;;;;;;6254339;28;19912;-79
2023/08/02 05:11:26;;;;;;;;;;;;;;;;;;6234100;28;20490;-79
2023/08/02 05:14:26;;;;;;;;;;;;;;;;;;6247861;28;19921;-79
2023/08/02 05:17:26;;;;;;;;;;;;;;;;;;6258132;28;19920;-79
2023/08/02 05:20:26;;;;;;;;;;;;;;;;;;6244150;28;19939;-79
2023/08/02 05:23:26;;;;;;;;;;;;;;;;;;6246298;28;19913;-79
2023/08/02 05:26:26;;;;;;;;;;;;;;;;;;6242942;28;19932;-80
2023/08/02 05:29:28;;;;;;;;;;;;;;;;;;6250471;28;19909;-80
2023/08/02 05:32:28;;;;;;;;;;;;;;;;;;6246355;28;19909;-79
2023/08/02 05:35:29;;;;;;;;;;;;;;;;;;6259372;28;19952;-79
2023/08/02 05:38:32;;;;;;;;;;;;;;;;;;6251948;28;19912;-78
2023/08/02 05:41:32;;;;;;;;;;;;;;;;;;6254126;28;19908;-79
2023/08/02 05:44:36;;;;;;;;;;;;;;;;;;6247985;28;19912;-78
2023/08/02 05:47:36;;;;;;;;;;;;;;;;;;6242119;28;19913;-79
2023/08/02 05:50:36;;;;;;;;;;;;;;;;;;6242334;28;19909;-78
2023/08/02 05:53:36;;;;;;;;;;;;;;;;;;6247817;28;19923;-79
2023/08/02 05:56:37;;;;;;;;;;;;;;;;;;6262817;28;19909;-86
2023/08/02 05:59:37;;;;;;;;;;;;;;;;;;6272321;28;20006;-86
2023/08/02 06:02:38;;;;;;;;;;;;;;;;;;6254572;28;19920;-85
2023/08/02 06:05:38;;;;;;;;;;;;;;;;;;6237532;28;20296;-78
2023/08/02 06:08:40;;;;;;;;;;;;;;;;;;6241094;28;20426;-78
2023/08/02 06:11:40;;;;;;;;;;;;;;;;;;6240347;28;19905;-78
2023/08/02 06:14:42;;;;;;;;;;;;;;;;;;6240923;28;20316;-78
2023/08/02 06:17:42;;;;;;;;;;;;;;;;;;6242933;28;19913;-78
2023/08/02 06:20:42;;;;;;;;;;;;;;;;;;6237373;28;19909;-78
2023/08/02 06:23:42;;;;;;;;;;;;;;;;;;6242551;28;20000;-79
2023/08/02 06:26:42;;;;;;;;;;;;;;;;;;6242511;28;19920;-78
2023/08/02 06:29:44;;;;;;;;;;;;;;;;;;6241393;28;19921;-78
2023/08/02 06:32:44;;;;;;;;;;;;;;;;;;6241829;28;19905;-78
2023/08/02 06:35:44;;;;;;;;;;;;;;;;;;6253187;28;19984;-78
2023/08/02 06:38:44;;;;;;;;;;;;;;;;;;6241407;28;19909;-77
2023/08/02 06:41:44;;;;;;;;;;;;;;;;;;6239027;28;20324;-78
2023/08/02 06:44:44;;;;;;;;;;;;;;;;;;6241900;28;19908;-78
2023/08/02 06:47:45;;;;;;;;;;;;;;;;;;6240709;28;19905;-78
2023/08/02 06:50:45;;;;;;;;;;;;;;;;;;6236006;28;19984;-78
2023/08/02 06:53:46;;;;;;;;;;;;;;;;;;6241536;28;19916;-78
2023/08/02 06:56:46;;;;;;;;;;;;;;;;;;6242437;28;19995;-78
2023/08/02 06:59:47;;;;;;;;;;;;;;;;;;6238875;28;19956;-78
2023/08/02 07:02:47;;;;;;;;;;;;;;;;;;6240527;28;19916;-78
2023/08/02 07:05:47;;;;;;;;;;;;;;;;;;6240520;28;19921;-78
2023/08/02 07:08:47;;;;;;;;;;;;;;;;;;6240963;28;19912;-78
2023/08/02 07:11:47;;;;;;;;;;;;;;;;;;6227428;28;19997;-78
2023/08/02 07:14:47;;;;;;;;;;;;;;;;;;6244116;28;19916;-86
2023/08/02 07:17:49;;;;;;;;;;;;;;;;;;6250636;28;19905;-85
2023/08/02 07:20:49;;;;;;;;;;;;;;;;;;6236432;28;19952;-85
2023/08/02 07:23:49;;;;;;;;;;;;;;;;;;6249457;28;19962;-85
2023/08/02 07:26:49;;;;;;;;;;;;;;;;;;6246867;28;19968;-77
2023/08/02 07:29:51;;;;;;;;;;;;;;;;;;6246301;28;19916;-77
2023/08/02 07:32:51;;;;;;;;;;;;;;;;;;6242491;28;19996;-78
2023/08/02 07:35:52;;;;;;;;;;;;;;;;;;6247140;28;20421;-84
2023/08/02 07:38:52;;;;;;;;;;;;;;;;;;6247596;28;19917;-83
2023/08/02 07:41:52;;;;;;;;;;;;;;;;;;6247725;28;19905;-83
2023/08/02 07:44:52;;;;;;;;;;;;;;;;;;6232592;28;20260;-82
2023/08/02 07:47:52;;;;;;;;;;;;;;;;;;6247874;28;19908;-83
2023/08/02 07:50:52;;;;;;;;;;;;;;;;;;6246362;28;20030;-83
2023/08/02 07:53:53;;;;;;;;;;;;;;;;;;6242414;28;19917;-84
2023/08/02 07:56:53;;;;;;;;;;;;;;;;;;6245956;28;20367;-83
2023/08/02 07:59:53;;;;;;;;;;;;;;;;;;6244754;28;19916;-82
2023/08/02 08:02:53;;;;;;;;;;;;;;;;;;6246181;28;19909;-83
2023/08/02 08:05:53;;;;;;;;;;;;;;;;;;6243942;28;19988;-83
2023/08/02 08:08:53;;;;;;;;;;;;;;;;;;6236046;28;20362;-83
2023/08/02 08:11:53;;;;;;;;;;;;;;;;;;6221839;28;19919;-83
2023/08/02 08:14:53;;;;;;;;;;;;;;;;;;6234461;28;19917;-83
2023/08/02 08:17:55;;;;;;;;;;;;;;;;;;6218677;28;19945;-83
2023/08/02 08:20:55;;;;;;;;;;;;;;;;;;6223853;28;19915;-82
2023/08/02 08:23:55;;;;;;;;;;;;;;;;;;6231230;28;19913;-83
2023/08/02 08:26:55;;;;;;;;;;;;;;;;;;6231573;28;19947;-83
2023/08/02 08:29:55;;;;;;;;;;;;;;;;;;6219393;28;19905;-82
2023/08/02 08:32:56;;;;;;;;;;;;;;;;;;6222421;28;19917;-82
2023/08/02 08:35:56;;;;;;;;;;;;;;;;;;6223613;28;19999;-77
2023/08/02 08:38:56;;;;;;;;;;;;;;;;;;6221183;28;19914;-77
2023/08/02 08:41:56;;;;;;;;;;;;;;;;;;6222985;28;20391;-78
2023/08/02 08:44:56;;;;;;;;;;;;;;;;;;6217389;28;19905;-82
2023/08/02 08:47:56;;;;;;;;;;;;;;;;;;6224126;28;19905;-82
2023/08/02 08:50:56;;;;;;;;;;;;;;;;;;6221416;28;19905;-82
2023/08/02 08:53:57;;;;;;;;;;;;;;;;;;6228950;28;19916;-82
2023/08/02 08:56:57;;;;;;;;;;;;;;;;;;6227644;28;19919;-81
2023/08/02 08:59:57;;;;;;;;;;;;;;;;;;6232764;28;20409;-81
2023/08/02 09:02:58;;;;;;;;;;;;;;;;;;6230662;28;19905;-81
2023/08/02 09:05:59;;;;;;;;;;;;;;;;;;6229963;28;20734;-81
2023/08/02 09:08:59;;;;;;;;;;;;;;;;;;6242762;28;19920;-80
2023/08/02 09:11:59;;;;;;;;;;;;;;;;;;6243746;28;19916;-81
2023/08/02 09:15:00;;;;;;;;;;;;;;;;;;6242676;28;20095;-81
2023/08/02 09:18:00;;;;;;;;;;;;;;;;;;6225991;28;19920;-81
2023/08/02 09:21:00;;;;;;;;;;;;;;;;;;6235342;28;19993;-81
2023/08/02 09:24:00;;;;;;;;;;;;;;;;;;6242725;28;19912;-81
2023/08/02 09:27:01;;;;;;;;;;;;;;;;;;6240153;28;19954;-81
2023/08/02 09:30:01;;;;;;;;;;;;;;;;;;6242902;28;20389;-81
2023/08/02 09:33:01;;;;;;;;;;;;;;;;;;6237211;28;20013;-81
2023/08/02 09:36:01;;;;;;;;;;;;;;;;;;6224509;28;19905;-80
2023/08/02 09:39:01;;;;;;;;;;;;;;;;;;6241420;28;19905;-80
2023/08/02 09:42:01;;;;;;;;;;;;;;;;;;6238236;28;19909;-81
2023/08/02 09:45:01;;;;;;;;;;;;;;;;;;6237545;28;19912;-80
2023/08/02 09:48:01;;;;;;;;;;;;;;;;;;6234369;28;20010;-80
2023/08/02 09:51:03;;;;;;;;;;;;;;;;;;6241036;28;19909;-80
2023/08/02 09:54:03;;;;;;;;;;;;;;;;;;6244636;28;19970;-79
2023/08/02 09:57:03;;;;;;;;;;;;;;;;;;6234189;28;20291;-80
2023/08/02 10:00:04;;;;;;;;;;;;;;;;;;6236095;28;19913;-81
2023/08/02 10:03:04;;;;;;;;;;;;;;;;;;6241950;28;19916;-79
2023/08/02 10:06:06;;;;;;;;;;;;;;;;;;6238812;28;19932;-77
2023/08/02 10:09:08;;;;;;;;;;;;;;;;;;6224690;28;19959;-78
2023/08/02 10:12:08;;;;;;;;;;;;;;;;;;6241845;28;19913;-77
2023/08/02 10:15:08;;;;;;;;;;;;;;;;;;6240822;28;19924;-77
2023/08/02 10:18:08;;;;;;;;;;;;;;;;;;6241017;28;19917;-77
2023/08/02 10:21:09;;;;;;;;;;;;;;;;;;6240932;28;20039;-77
2023/08/02 10:24:09;;;;;;;;;;;;;;;;;;6232450;28;19917;-77
2023/08/02 10:27:09;;;;;;;;;;;;;;;;;;6241359;28;19936;-77
2023/08/02 10:30:09;;;;;;;;;;;;;;;;;;6242171;28;20363;-77
2023/08/02 10:33:09;;;;;;;;;;;;;;;;;;6237613;28;19917;-77
2023/08/02 10:36:09;;;;;;;;;;;;;;;;;;6241704;28;19913;-77
2023/08/02 10:39:09;;;;;;;;;;;;;;;;;;6241511;28;19959;-77
2023/08/02 10:42:09;;;;;;;;;;;;;;;;;;6239813;28;19971;-78
2023/08/02 10:45:10;;;;;;;;;;;;;;;;;;6241146;28;19947;-79
2023/08/02 10:48:10;;;;;;;;;;;;;;;;;;6239333;28;20234;-78
2023/08/02 10:51:10;;;;;;;;;;;;;;;;;;6231633;28;19932;-77
2023/08/02 10:54:13;;;;;;;;;;;;;;;;;;6248157;28;19913;-77
2023/08/02 10:57:14;;;;;;;;;;;;;;;;;;6250595;28;19911;-79
2023/08/02 11:00:14;;;;;;;;;;;;;;;;;;6250819;28;19909;-81
2023/08/02 11:03:14;;;;;;;;;;;;;;;;;;6247218;28;19967;-81
2023/08/02 11:06:15;;;;;;;;;;;;;;;;;;6243915;28;19928;-81
2023/08/02 11:09:15;;;;;;;;;;;;;;;;;;6248807;28;19915;-78
2023/08/02 11:12:15;;;;;;;;;;;;;;;;;;6249228;28;19909;-80
2023/08/02 11:15:16;;;;;;;;;;;;;;;;;;6249692;28;19917;-76
2023/08/02 11:18:16;;;;;;;;;;;;;;;;;;6250409;28;20000;-77
2023/08/02 11:21:16;;;;;;;;;;;;;;;;;;6250297;28;20417;-77
2023/08/02 11:24:16;;;;;;;;;;;;;;;;;;6250669;28;19994;-77
2023/08/02 11:27:16;;;;;;;;;;;;;;;;;;6250426;28;19916;-79
2023/08/02 11:30:16;;;;;;;;;;;;;;;;;;6249775;28;20379;-78
2023/08/02 11:33:16;;;;;;;;;;;;;;;;;;6247624;28;20004;-79
2023/08/02 11:36:16;;;;;;;;;;;;;;;;;;6247279;28;19913;-76
2023/08/02 11:39:16;;;;;;;;;;;;;;;;;;6250081;28;20028;-77
2023/08/02 11:42:17;;;;;;;;;;;;;;;;;;6248854;28;20375;-77
2023/08/02 11:45:17;;;;;;;;;;;;;;;;;;6248749;28;20003;-78
2023/08/02 11:48:17;;;;;;;;;;;;;;;;;;6249610;28;19992;-77
2023/08/02 11:51:17;;;;;;;;;;;;;;;;;;6247921;28;19909;-77
2023/08/02 11:54:17;;;;;;;;;;;;;;;;;;6233494;28;19909;-77
2023/08/02 11:57:17;;;;;;;;;;;;;;;;;;6249432;28;19943;-78
2023/08/02 12:00:17;;;;;;;;;;;;;;;;;;6246103;28;19904;-77
2023/08/02 12:03:17;;;;;;;;;;;;;;;;;;6245781;28;20426;-77
2023/08/02 12:06:17;;;;;;;;;;;;;;;;;;6234134;28;19925;-80
2023/08/02 12:09:18;;;;;;;;;;;;;;;;;;6219293;28;20463;-80
2023/08/02 12:12:19;;;;;;;;;;;;;;;;;;6229425;28;20153;-80
2023/08/02 12:15:19;;;;;;;;;;;;;;;;;;6222079;28;19914;-81
2023/08/02 12:18:19;;;;;;;;;;;;;;;;;;6222372;28;19920;-80
2023/08/02 12:21:20;;;;;;;;;;;;;;;;;;6228337;28;19920;-79
2023/08/02 12:24:20;;;;;;;;;;;;;;;;;;6235636;28;19917;-80
2023/08/02 12:27:20;;;;;;;;;;;;;;;;;;6227960;28;19959;-80
2023/08/02 12:30:20;;;;;;;;;;;;;;;;;;6228423;28;19917;-80
2023/08/02 12:33:20;;;;;;;;;;;;;;;;;;6226255;28;19905;-79
2023/08/02 12:36:20;;;;;;;;;;;;;;;;;;6220456;28;20368;-79
2023/08/02 12:39:22;;;;;;;;;;;;;;;;;;6235902;28;19944;-80
2023/08/02 12:42:22;;;;;;;;;;;;;;;;;;6231499;28;19912;-80
2023/08/02 12:45:26;;;;;;;;;;;;;;;;;;6227191;28;19909;-79
2023/08/02 12:48:26;;;;;;;;;;;;;;;;;;6227360;28;19935;-80
2023/08/02 12:51:26;;;;;;;;;;;;;;;;;;6215774;28;20364;-80
2023/08/02 12:54:26;;;;;;;;;;;;;;;;;;6226126;28;19924;-80
2023/08/02 12:57:26;;;;;;;;;;;;;;;;;;6228532;28;20395;-79
2023/08/02 13:00:26;;;;;;;;;;;;;;;;;;6224205;28;20597;-79
2023/08/02 13:03:26;;;;;;;;;;;;;;;;;;6226307;28;19913;-79
2023/08/02 13:06:26;;;;;;;;;;;;;;;;;;6243097;28;19932;-80
2023/08/02 13:09:27;;;;;;;;;;;;;;;;;;6241982;28;19915;-80
2023/08/02 13:12:31;;;;;;;;;;;;;;;;;;6243192;28;19909;-80
2023/08/02 13:15:31;;;;;;;;;;;;;;;;;;6225494;28;19916;-80
2023/08/02 13:18:31;;;;;;;;;;;;;;;;;;6238149;28;20000;-80
2023/08/02 13:21:31;;;;;;;;;;;;;;;;;;6242685;28;19909;-78
2023/08/02 13:24:31;;;;;;;;;;;;;;;;;;6244412;28;19909;-80
2023/08/02 13:27:34;;;;;;;;;;;;;;;;;;6230579;28;19936;-80
2023/08/02 13:30:35;;;;;;;;;;;;;;;;;;6243489;28;19955;-79
2023/08/02 13:33:35;;;;;;;;;;;;;;;;;;6243362;28;20408;-79
2023/08/02 13:36:35;;;;;;;;;;;;;;;;;;6243531;28;19912;-80
2023/08/02 13:39:35;;;;;;;;;;;;;;;;;;6239091;28;19919;-80
2023/08/02 13:42:35;;;;;;;;;;;;;;;;;;6240959;28;19919;-80
2023/08/02 13:45:35;;;;;;;;;;;;;;;;;;6239458;28;20374;-79
2023/08/02 13:48:35;;;;;;;;;;;;;;;;;;6243245;28;19995;-79
2023/08/02 13:51:36;;;;;;;;;;;;;;;;;;6240409;28;20012;-80
2023/08/02 13:54:36;;;;;;;;;;;;;;;;;;6244865;28;19920;-80
2023/08/02 13:57:36;;;;;;;;;;;;;;;;;;6242680;28;19947;-79
2023/08/02 14:00:36;;;;;;;;;;;;;;;;;;6242752;28;19905;-80
2023/08/02 14:03:36;;;;;;;;;;;;;;;;;;6225605;28;19911;-80
2023/08/02 14:06:36;;;;;;;;;;;;;;;;;;6243106;28;19924;-82
2023/08/02 14:09:38;;;;;;;;;;;;;;;;;;6240885;28;19947;-81
2023/08/02 14:12:39;;;;;;;;;;;;;;;;;;6223716;28;19912;-80
2023/08/02 14:15:40;;;;;;;;;;;;;;;;;;6242445;28;19967;-80
2023/08/02 14:18:40;;;;;;;;;;;;;;;;;;6242001;28;19913;-80
2023/08/02 14:21:40;;;;;;;;;;;;;;;;;;6242543;28;19917;-80
2023/08/02 14:24:40;;;;;;;;;;;;;;;;;;6243691;28;19924;-81
2023/08/02 14:27:40;;;;;;;;;;;;;;;;;;6229355;28;19916;-81
2023/08/02 14:30:40;;;;;;;;;;;;;;;;;;6241782;28;19996;-80
2023/08/02 14:33:40;;;;;;;;;;;;;;;;;;6236051;28;19916;-81
2023/08/02 14:36:40;;;;;;;;;;;;;;;;;;6242256;28;20446;-80
2023/08/02 14:39:41;;;;;;;;;;;;;;;;;;6242264;28;19963;-80
2023/08/02 14:42:41;;;;;;;;;;;;;;;;;;6238329;28;19917;-81
2023/08/02 14:45:41;;;;;;;;;;;;;;;;;;6239717;28;19996;-80
2023/08/02 14:48:42;;;;;;;;;;;;;;;;;;6242747;28;19979;-80
2023/08/02 14:51:42;;;;;;;;;;;;;;;;;;6225671;28;20382;-81
2023/08/02 14:54:42;;;;;;;;;;;;;;;;;;6242537;28;19913;-81
2023/08/02 14:57:42;;;;;;;;;;;;;;;;;;6238539;28;20003;-80
2023/08/02 15:00:42;;;;;;;;;;;;;;;;;;6238694;28;19916;-80
2023/08/02 15:03:42;;;;;;;;;;;;;;;;;;6239163;28;20045;-80
2023/08/02 15:06:43;;;;;;;;;;;;;;;;;;6240899;28;19940;-80
2023/08/02 15:09:45;;;;;;;;;;;;;;;;;;6235685;28;19913;-79
2023/08/02 15:12:46;;;;;;;;;;;;;;;;;;6241820;28;19955;-81
2023/08/02 15:15:46;;;;;;;;;;;;;;;;;;6241419;28;20003;-80
2023/08/02 15:18:46;;;;;;;;;;;;;;;;;;6240952;28;19948;-80
2023/08/02 15:21:46;;;;;;;;;;;;;;;;;;6239116;28;19909;-79
2023/08/02 15:24:46;;;;;;;;;;;;;;;;;;6242103;28;19905;-80
2023/08/02 15:27:46;;;;;;;;;;;;;;;;;;6223777;28;19922;-80
2023/08/02 15:30:47;;;;;;;;;;;;;;;;;;6237310;28;19916;-80
2023/08/02 15:33:48;;;;;;;;;;;;;;;;;;6236142;28;19917;-79
2023/08/02 15:36:48;;;;;;;;;;;;;;;;;;6236913;28;19944;-82
2023/08/02 15:39:48;;;;;;;;;;;;;;;;;;6226828;28;19915;-80
2023/08/02 15:42:49;;;;;;;;;;;;;;;;;;6242026;28;19913;-79
2023/08/02 15:45:50;;;;;;;;;;;;;;;;;;6243626;28;20035;-80
2023/08/02 15:48:50;;;;;;;;;;;;;;;;;;6238223;28;20342;-81
2023/08/02 15:51:50;;;;;;;;;;;;;;;;;;6246148;28;20363;-79
2023/08/02 15:54:50;;;;;;;;;;;;;;;;;;6237166;28;19952;-81
2023/08/02 15:57:50;;;;;;;;;;;;;;;;;;6244209;28;19920;-81
2023/08/02 16:00:50;;;;;;;;;;;;;;;;;;6245037;28;19948;-81
2023/08/02 16:03:51;;;;;;;;;;;;;;;;;;6245347;28;20035;-81
2023/08/02 16:06:51;;;;;;;;;;;;;;;;;;6245647;28;20457;-81
2023/08/02 16:09:51;;;;;;;;;;;;;;;;;;6236169;28;20398;-82
2023/08/02 16:12:52;;;;;;;;;;;;;;;;;;6244193;28;20355;-81
2023/08/02 16:15:52;;;;;;;;;;;;;;;;;;6227449;28;19913;-82
2023/08/02 16:18:52;;;;;;;;;;;;;;;;;;6244850;28;19905;-80
2023/08/02 16:21:52;;;;;;;;;;;;;;;;;;6239060;28;19925;-81
2023/08/02 16:24:52;;;;;;;;;;;;;;;;;;6245321;28;19915;-81
2023/08/02 16:27:53;;;;;;;;;;;;;;;;;;6245361;28;19909;-79
2023/08/02 16:30:54;;;;;;;;;;;;;;;;;;6234188;28;19909;-80
2023/08/02 16:33:54;;;;;;;;;;;;;;;;;;6235978;28;19920;-80
2023/08/02 16:36:54;;;;;;;;;;;;;;;;;;6239786;28;19917;-80
2023/08/02 16:39:54;;;;;;;;;;;;;;;;;;6239009;28;20444;-81
2023/08/02 16:42:54;;;;;;;;;;;;;;;;;;6222356;28;19909;-81
2023/08/02 16:45:54;;;;;;;;;;;;;;;;;;6243340;28;19916;-77
2023/08/02 16:48:54;;;;;;;;;;;;;;;;;;6244170;28;19913;-77
2023/08/02 16:51:54;;;;;;;;;;;;;;;;;;6242384;28;19920;-78
2023/08/02 16:54:54;;;;;;;;;;;;;;;;;;6244289;28;19959;-77
2023/08/02 16:57:55;;;;;;;;;;;;;;;;;;6244163;28;19998;-78
2023/08/02 17:00:55;;;;;;;;;;;;;;;;;;6238578;28;20225;-77
2023/08/02 17:03:55;;;;;;;;;;;;;;;;;;6241201;28;19919;-78
2023/08/02 17:06:55;;;;;;;;;;;;;;;;;;6239166;28;20011;-76
2023/08/02 17:09:55;;;;;;;;;;;;;;;;;;6236385;28;19913;-77
2023/08/02 17:12:55;;;;;;;;;;;;;;;;;;6243195;28;19905;-76
2023/08/02 17:15:55;;;;;;;;;;;;;;;;;;6241487;28;19924;-77
2023/08/02 17:18:56;;;;;;;;;;;;;;;;;;6235413;28;20359;-76
2023/08/02 17:21:56;;;;;;;;;;;;;;;;;;6240588;28;20028;-76
2023/08/02 17:24:56;;;;;;;;;;;;;;;;;;6235018;28;19979;-76
2023/08/02 17:27:56;;;;;;;;;;;;;;;;;;6226631;28;19989;-76
2023/08/02 17:30:56;;;;;;;;;;;;;;;;;;6250689;28;19944;-76
2023/08/02 17:33:57;;;;;;;;;;;;;;;;;;6244487;28;19952;-76
2023/08/02 17:36:57;;;;;;;;;;;;;;;;;;6241744;28;20271;-81
2023/08/02 17:39:58;;;;;;;;;;;;;;;;;;6227380;28;19910;-81
2023/08/02 17:42:58;;;;;;;;;;;;;;;;;;6237526;28;19909;-81
2023/08/02 17:45:58;;;;;;;;;;;;;;;;;;6243247;28;19908;-81
2023/08/02 17:48:59;;;;;;;;;;;;;;;;;;6240167;28;20031;-82
2023/08/02 17:51:59;;;;;;;;;;;;;;;;;;6252671;28;19937;-81
2023/08/02 17:54:59;;;;;;;;;;;;;;;;;;6250525;28;19913;-82
2023/08/02 17:57:59;;;;;;;;;;;;;;;;;;6252118;28;20011;-81
2023/08/02 18:00:59;;;;;;;;;;;;;;;;;;6250276;28;20266;-81
2023/08/02 18:03:59;;;;;;;;;;;;;;;;;;6253047;28;19940;-82
2023/08/02 18:07:00;;;;;;;;;;;;;;;;;;6238605;28;19925;-81
2023/08/02 18:10:00;;;;;;;;;;;;;;;;;;6242706;28;19909;-81
2023/08/02 18:13:03;;;;;;;;;;;;;;;;;;6240943;28;19917;-82
2023/08/02 18:16:03;;;;;;;;;;;;;;;;;;6241547;28;19913;-82
2023/08/02 18:19:04;;;;;;;;;;;;;;;;;;6242469;28;20300;-82
2023/08/02 18:22:04;;;;;;;;;;;;;;;;;;6239888;28;19916;-82
2023/08/02 18:25:05;;;;;;;;;;;;;;;;;;6241540;28;19909;-81
2023/08/02 18:28:05;;;;;;;;;;;;;;;;;;6243348;28;20264;-82
2023/08/02 18:31:05;;;;;;;;;;;;;;;;;;6240538;28;19909;-82
2023/08/02 18:34:05;;;;;;;;;;;;;;;;;;6241524;28;19913;-82
2023/08/02 18:37:06;;;;;;;;;;;;;;;;;;6239920;28;19944;-81
2023/08/02 18:40:06;;;;;;;;;;;;;;;;;;6240374;28;20008;-82
2023/08/02 18:43:06;;;;;;;;;;;;;;;;;;6241882;28;19948;-82
2023/08/02 18:46:06;;;;;;;;;;;;;;;;;;6235552;28;19991;-81
2023/08/02 18:49:07;;;;;;;;;;;;;;;;;;6241274;28;20007;-82
2023/08/02 18:52:07;;;;;;;;;;;;;;;;;;6244213;28;20371;-81
2023/08/02 18:55:07;;;;;;;;;;;;;;;;;;6241319;28;20039;-80
2023/08/02 18:58:08;;;;;;;;;;;;;;;;;;6236417;28;20355;-81
2023/08/02 19:01:09;;;;;;;;;;;;;;;;;;6238512;28;19909;-82
2023/08/02 19:04:09;;;;;;;;;;;;;;;;;;6240985;28;19916;-81
2023/08/02 19:07:10;;;;;;;;;;;;;;;;;;6245099;28;20012;-78
2023/08/02 19:10:10;;;;;;;;;;;;;;;;;;6252688;28;20749;-75
2023/08/02 19:13:10;;;;;;;;;;;;;;;;;;6249094;28;19920;-76
2023/08/02 19:16:10;;;;;;;;;;;;;;;;;;6246617;28;20429;-76
2023/08/02 19:19:10;;;;;;;;;;;;;;;;;;6243795;28;19924;-77
2023/08/02 19:22:10;;;;;;;;;;;;;;;;;;6243643;28;20008;-76
2023/08/02 19:25:10;;;;;;;;;;;;;;;;;;6234827;28;19909;-75
2023/08/02 19:28:10;;;;;;;;;;;;;;;;;;6246805;28;19979;-76
2023/08/02 19:31:11;;;;;;;;;;;;;;;;;;6248912;28;19913;-76
2023/08/02 19:34:11;;;;;;;;;;;;;;;;;;6246882;28;19917;-76
2023/08/02 19:37:11;;;;;;;;;;;;;;;;;;6250632;28;20010;-76
2023/08/02 19:40:11;;;;;;;;;;;;;;;;;;6241870;28;20016;-76
2023/08/02 19:43:13;;;;;;;;;;;;;;;;;;6256097;28;19912;-76
2023/08/02 19:46:13;;;;;;;;;;;;;;;;;;6247537;28;20004;-76
2023/08/02 19:49:13;;;;;;;;;;;;;;;;;;6246109;28;19909;-76
2023/08/02 19:52:13;;;;;;;;;;;;;;;;;;6239078;28;19905;-76
2023/08/02 19:55:14;;;;;;;;;;;;;;;;;;6246171;28;20248;-76
2023/08/02 19:58:15;;;;;;;;;;;;;;;;;;6246413;28;19944;-76
2023/08/02 20:01:15;;;;;;;;;;;;;;;;;;6245142;28;20201;-76
2023/08/02 20:04:15;;;;;;;;;;;;;;;;;;6245048;28;20410;-76
2023/08/02 20:07:15;;;;;;;;;;;;;;;;;;6236631;28;19932;-76
2023/08/02 20:10:15;;;;;;;;;;;;;;;;;;6243156;28;19999;-76
2023/08/02 20:13:15;;;;;;;;;;;;;;;;;;6243453;28;19971;-76
2023/08/02 20:16:15;;;;;;;;;;;;;;;;;;6236087;28;19940;-77
2023/08/02 20:19:15;;;;;;;;;;;;;;;;;;6239412;28;19913;-76
2023/08/02 20:22:16;;;;;;;;;;;;;;;;;;6233581;28;19913;-75
2023/08/02 20:25:16;;;;;;;;;;;;;;;;;;6242584;28;19948;-76
2023/08/02 20:28:16;;;;;;;;;;;;;;;;;;6246740;28;19920;-76
2023/08/02 20:31:16;;;;;;;;;;;;;;;;;;6245273;28;19909;-77